Time;durP1;ratioP1;P1;durP2;ratioP2;P2;SDS_P1;SDS_P2;PMS_P1;PMS_P2;Temp;Humidity;BMP_temperature;BMP_pressure;BME280_temperature;BME280_humidity;BME280_pressure;Samples;Min_cycle;Max_cycle;Signal;HPM_P1;HPM_P2
2022/05/23 00:02:00;;;;;;;7.70;4.32;;;13.50;99.90;;;;;;4984710;28;20092;-70
2022/05/23 00:04:26;;;;;;;7.75;4.50;;;13.50;99.90;;;;;;4990477;28;20069;-68
2022/05/23 00:06:55;;;;;;;7.95;4.80;;;13.50;99.90;;;;;;4995020;28;20105;-69
2022/05/23 00:09:21;;;;;;;8.30;4.80;;;13.50;99.90;;;;;;4993750;28;20442;-68
2022/05/23 00:11:47;;;;;;;8.13;5.07;;;13.40;99.90;;;;;;4995758;28;20506;-69
2022/05/23 00:14:14;;;;;;;8.02;4.90;;;13.40;99.90;;;;;;5009108;28;20046;-68
2022/05/23 00:16:45;;;;;;;8.13;5.28;;;13.40;99.90;;;;;;4973576;28;20084;-68
2022/05/23 00:19:11;;;;;;;11.77;5.00;;;13.30;99.90;;;;;;4994713;28;20471;-69
2022/05/23 00:21:40;;;;;;;8.75;5.20;;;13.30;99.90;;;;;;4987367;28;20766;-68
2022/05/23 00:24:08;;;;;;;5.60;5.05;;;13.30;99.90;;;;;;4985818;28;20097;-68
2022/05/23 00:26:34;;;;;;;7.32;5.70;;;13.30;99.90;;;;;;4983917;28;20100;-68
2022/05/23 00:29:00;;;;;;;8.55;5.25;;;13.30;99.90;;;;;;5010790;28;20045;-69
2022/05/23 00:31:26;;;;;;;8.55;5.53;;;13.30;99.90;;;;;;4983003;28;20541;-68
2022/05/23 00:36:36;;;;;;;7.30;5.07;;;13.30;99.90;;;;;;4992226;28;20045;-69
2022/05/23 00:39:04;;;;;;;7.32;5.70;;;13.20;99.90;;;;;;5011925;28;20056;-69
2022/05/23 00:44:27;;;;;;;7.32;5.45;;;13.10;99.90;;;;;;4993895;28;20077;-68
2022/05/23 00:46:57;;;;;;;9.10;5.32;;;13.10;99.90;;;;;;4995133;28;20446;-68
2022/05/23 00:49:29;;;;;;;8.68;5.43;;;13.10;99.90;;;;;;4979551;28;20085;-68
2022/05/23 00:51:58;;;;;;;8.45;5.70;;;13.10;99.90;;;;;;4976469;28;20061;-70
2022/05/23 00:54:27;;;;;;;11.45;5.25;;;13.00;99.90;;;;;;5002169;28;20058;-68
2022/05/23 00:56:53;;;;;;;7.88;5.63;;;13.00;99.90;;;;;;4986409;28;20054;-68
2022/05/23 00:59:29;;;;;;;8.30;4.90;;;12.90;99.90;;;;;;4975794;28;20057;-68
2022/05/23 01:01:57;;;;;;;7.70;5.20;;;12.90;99.90;;;;;;4988909;28;20486;-71
2022/05/23 01:04:23;;;;;;;6.95;5.05;;;12.90;99.90;;;;;;4969947;28;20142;-69
2022/05/23 01:06:49;;;;;;;8.07;5.47;;;12.80;99.90;;;;;;4990992;28;20046;-68
2022/05/23 01:09:15;;;;;;;8.65;5.20;;;12.80;99.90;;;;;;4984440;28;20108;-68
2022/05/23 01:11:41;;;;;;;9.25;5.20;;;12.80;99.90;;;;;;4989846;28;20050;-68
2022/05/23 01:14:07;;;;;;;6.88;5.28;;;12.80;99.90;;;;;;4976801;28;20148;-69
2022/05/23 01:16:33;;;;;;;8.65;4.68;;;12.80;99.90;;;;;;4975341;28;20060;-68
2022/05/23 01:18:59;;;;;;;7.18;4.93;;;12.80;99.90;;;;;;4992281;28;20054;-68
2022/05/23 01:21:52;;;;;;;11.13;4.75;;;12.80;99.90;;;;;;4995206;28;20398;-69
2022/05/23 01:24:32;;;;;;;13.45;4.82;;;12.80;99.90;;;;;;4981286;28;20050;-68
2022/05/23 01:26:59;;;;;;;6.55;4.30;;;12.70;99.90;;;;;;4975546;28;20050;-68
2022/05/23 01:29:25;;;;;;;8.48;4.60;;;12.70;99.90;;;;;;4961732;28;20037;-68
2022/05/23 01:31:50;;;;;;;8.45;4.85;;;12.60;99.90;;;;;;4959974;28;20050;-69
2022/05/23 01:34:16;;;;;;;5.78;4.32;;;12.60;99.90;;;;;;4973863;28;20526;-69
2022/05/23 01:36:42;;;;;;;6.75;4.45;;;12.60;99.90;;;;;;4991563;28;20490;-69
2022/05/23 01:39:08;;;;;;;6.88;4.35;;;12.60;99.90;;;;;;4960692;28;20482;-68
2022/05/23 01:41:34;;;;;;;6.22;4.22;;;12.60;99.90;;;;;;4985888;28;20495;-68
2022/05/23 01:44:00;;;;;;;9.05;4.38;;;12.60;99.90;;;;;;4984699;28;20493;-68
2022/05/23 01:46:26;;;;;;;7.15;3.88;;;12.60;99.90;;;;;;4992652;28;20512;-68
2022/05/23 01:48:52;;;;;;;7.90;4.32;;;12.60;99.90;;;;;;4974854;28;20518;-69
2022/05/23 01:51:19;;;;;;;8.05;3.58;;;12.60;99.90;;;;;;4967102;28;20056;-69
2022/05/23 01:53:45;;;;;;;7.55;4.18;;;12.60;99.90;;;;;;5007721;28;20057;-68
2022/05/23 01:56:11;;;;;;;8.18;3.88;;;12.60;99.90;;;;;;4991303;28;20049;-68
2022/05/23 02:01:25;;;;;;;7.78;3.75;;;12.60;99.90;;;;;;4991290;28;20046;-68
2022/05/23 02:03:51;;;;;;;7.15;4.07;;;12.60;99.90;;;;;;4988933;28;20106;-68
2022/05/23 02:06:17;;;;;;;7.65;3.75;;;12.60;99.90;;;;;;4986414;28;20044;-67
2022/05/23 02:08:43;;;;;;;6.28;3.70;;;12.60;99.90;;;;;;4978112;28;20042;-68
2022/05/23 02:11:10;;;;;;;5.35;3.75;;;12.60;99.90;;;;;;4993381;28;20041;-69
2022/05/23 02:13:39;;;;;;;9.40;4.10;;;12.60;99.90;;;;;;4986953;28;20053;-71
2022/05/23 02:16:06;;;;;;;5.50;3.80;;;12.60;99.90;;;;;;4992822;28;20138;-68
2022/05/23 02:18:32;;;;;;;6.03;3.75;;;12.60;99.90;;;;;;4989292;28;20044;-68
2022/05/23 02:20:59;;;;;;;6.85;3.80;;;12.60;99.90;;;;;;4993119;28;20041;-67
2022/05/23 02:23:25;;;;;;;5.65;3.85;;;12.60;99.90;;;;;;4975950;28;20121;-69
2022/05/23 02:25:52;;;;;;;6.22;3.45;;;12.60;99.90;;;;;;4958954;28;20050;-68
2022/05/23 02:28:19;;;;;;;6.38;3.63;;;12.70;99.90;;;;;;5006665;28;20046;-68
2022/05/23 02:30:49;;;;;;;4.85;3.15;;;12.70;99.90;;;;;;4994511;28;20041;-69
2022/05/23 02:33:15;;;;;;;6.75;3.47;;;12.70;99.90;;;;;;4975589;28;20108;-71
2022/05/23 02:35:42;;;;;;;7.47;3.95;;;12.70;99.90;;;;;;4993220;28;20056;-68
2022/05/23 02:38:08;;;;;;;7.55;4.00;;;12.70;99.90;;;;;;4978177;28;20077;-68
2022/05/23 02:40:34;;;;;;;5.85;3.80;;;12.70;99.90;;;;;;4993630;28;20482;-67
2022/05/23 02:43:00;;;;;;;6.97;3.80;;;12.70;99.90;;;;;;4976493;28;20041;-69
2022/05/23 02:45:26;;;;;;;5.38;3.67;;;12.80;99.90;;;;;;4987160;28;20097;-68
2022/05/23 02:47:53;;;;;;;7.05;3.92;;;12.80;99.90;;;;;;4973105;28;20483;-71
2022/05/23 02:50:19;;;;;;;5.47;3.38;;;12.80;99.90;;;;;;4977961;28;20049;-68
2022/05/23 02:52:45;;;;;;;11.20;3.50;;;12.80;99.90;;;;;;4962768;28;20057;-69
2022/05/23 02:55:12;;;;;;;7.57;3.70;;;12.80;99.90;;;;;;4982999;28;20565;-68
2022/05/23 02:57:38;;;;;;;6.25;3.40;;;12.80;99.90;;;;;;5008814;28;20058;-70
2022/05/23 03:00:07;;;;;;;7.38;3.65;;;12.80;99.90;;;;;;4993775;28;20046;-68
2022/05/23 03:05:17;;;;;;;9.10;3.95;;;12.90;99.90;;;;;;5012149;28;20465;-68
2022/05/23 03:07:45;;;;;;;6.45;3.72;;;12.90;99.90;;;;;;4991695;28;20041;-69
2022/05/23 03:10:12;;;;;;;10.07;4.15;;;12.90;99.90;;;;;;4968608;28;20497;-68
2022/05/23 03:12:38;;;;;;;7.00;3.88;;;12.90;99.90;;;;;;4978681;28;20434;-69
2022/05/23 03:15:06;;;;;;;6.88;3.88;;;12.90;99.90;;;;;;4990878;28;20089;-68
2022/05/23 03:17:33;;;;;;;7.45;3.72;;;12.90;99.90;;;;;;4986437;28;20050;-68
2022/05/23 03:19:59;;;;;;;4.13;3.65;;;12.90;99.90;;;;;;4994573;28;20093;-70
2022/05/23 03:27:55;;;;;;;7.47;3.92;;;12.80;99.90;;;;;;4989029;28;20138;-71
2022/05/23 03:30:22;;;;;;;8.65;4.10;;;12.80;99.90;;;;;;4996330;28;20053;-68
2022/05/23 03:32:48;;;;;;;5.50;3.88;;;12.90;99.90;;;;;;4976807;28;20128;-68
2022/05/23 03:35:14;;;;;;;5.63;3.85;;;12.90;99.90;;;;;;4998515;28;20482;-69
2022/05/23 03:37:40;;;;;;;5.97;3.65;;;12.80;99.90;;;;;;4989501;28;20058;-68
2022/05/23 03:40:07;;;;;;;6.68;3.88;;;12.90;99.90;;;;;;4993033;28;20038;-68
2022/05/23 03:42:34;;;;;;;7.25;3.92;;;12.90;99.90;;;;;;4995559;28;20042;-68
2022/05/23 03:45:00;;;;;;;8.70;4.40;;;12.90;99.90;;;;;;4978427;28;20053;-68
2022/05/23 03:47:26;;;;;;;6.53;4.25;;;13.00;99.90;;;;;;4984627;28;20046;-71
2022/05/23 03:49:52;;;;;;;5.95;3.72;;;13.00;99.90;;;;;;4992579;28;20511;-68
2022/05/23 03:52:20;;;;;;;5.18;3.80;;;13.00;99.90;;;;;;4993133;28;20231;-69
2022/05/23 03:54:46;;;;;;;6.43;3.90;;;13.00;99.90;;;;;;5007011;28;20062;-68
2022/05/23 03:57:12;;;;;;;5.55;4.05;;;13.00;99.90;;;;;;4985685;28;20070;-68
2022/05/23 03:59:38;;;;;;;9.30;4.57;;;13.00;99.90;;;;;;4952868;28;20085;-68
2022/05/23 04:02:04;;;;;;;5.47;3.92;;;13.10;99.90;;;;;;4991200;28;20129;-68
2022/05/23 04:04:31;;;;;;;6.00;4.10;;;13.10;99.90;;;;;;5011046;28;20061;-68
2022/05/23 04:07:02;;;;;;;7.63;4.40;;;13.10;99.90;;;;;;4986712;28;20057;-68
2022/05/23 04:09:29;;;;;;;6.15;4.07;;;13.10;99.90;;;;;;4989970;28;20054;-68
2022/05/23 04:11:56;;;;;;;8.50;4.32;;;13.10;99.90;;;;;;4991244;28;20529;-71
2022/05/23 04:14:22;;;;;;;9.13;4.20;;;13.10;99.90;;;;;;4963945;28;20091;-69
2022/05/23 04:16:49;;;;;;;6.65;4.50;;;13.10;99.90;;;;;;4989191;28;20053;-68
2022/05/23 04:19:15;;;;;;;7.45;4.20;;;13.20;99.90;;;;;;4992892;28;20393;-68
2022/05/23 04:21:43;;;;;;;7.90;4.90;;;13.20;99.90;;;;;;4983590;28;20088;-68
2022/05/23 04:24:10;;;;;;;8.13;4.68;;;13.20;99.90;;;;;;4990218;28;20107;-68
2022/05/23 04:26:36;;;;;;;7.13;4.43;;;13.20;99.90;;;;;;4994666;28;20088;-68
2022/05/23 04:29:03;;;;;;;7.35;4.60;;;13.30;99.90;;;;;;4986884;28;20037;-68
2022/05/23 04:31:29;;;;;;;6.03;4.50;;;13.30;99.90;;;;;;4995229;28;20046;-69
2022/05/23 04:36:40;;;;;;;6.95;4.32;;;13.40;99.90;;;;;;4984220;28;20454;-70
2022/05/23 04:39:07;;;;;;;8.88;4.78;;;13.50;99.90;;;;;;4990533;28;20550;-68
2022/05/23 04:41:33;;;;;;;8.40;5.20;;;13.50;99.90;;;;;;4987287;28;20086;-69
2022/05/23 04:43:59;;;;;;;7.00;5.07;;;13.50;99.90;;;;;;4962130;28;20050;-69
2022/05/23 04:46:27;;;;;;;9.27;5.28;;;13.60;99.90;;;;;;4986621;28;20173;-70
2022/05/23 04:51:39;;;;;;;9.50;5.05;;;13.70;99.90;;;;;;4981958;28;20057;-68
2022/05/23 04:54:07;;;;;;;7.97;5.50;;;13.80;99.90;;;;;;4987953;28;20109;-68
2022/05/23 04:56:33;;;;;;;9.80;4.88;;;13.90;99.90;;;;;;4974417;28;20046;-68
2022/05/23 04:58:59;;;;;;;8.57;5.00;;;14.00;99.90;;;;;;4973855;28;20045;-69
2022/05/23 05:01:26;;;;;;;7.25;4.72;;;14.10;99.90;;;;;;4976083;28;20046;-70
2022/05/23 05:03:57;;;;;;;8.55;5.55;;;14.10;99.90;;;;;;5005116;28;20046;-69
2022/05/23 05:06:24;;;;;;;8.93;5.28;;;14.20;99.90;;;;;;4988963;28;20049;-69
2022/05/23 05:08:51;;;;;;;8.45;5.20;;;14.20;99.90;;;;;;4981039;28;20045;-68
2022/05/23 05:11:18;;;;;;;6.20;5.45;;;14.20;99.90;;;;;;4982859;28;20054;-71
2022/05/23 05:13:44;;;;;;;9.27;5.65;;;14.20;99.90;;;;;;4967943;28;20054;-68
2022/05/23 05:16:12;;;;;;;8.75;5.75;;;14.20;99.90;;;;;;5010110;28;20128;-68
2022/05/23 05:18:38;;;;;;;10.48;5.50;;;14.20;99.90;;;;;;4989105;28;20050;-69
2022/05/23 05:21:10;;;;;;;9.77;5.82;;;14.30;99.90;;;;;;4992161;28;20065;-70
2022/05/23 05:23:36;;;;;;;9.80;6.30;;;14.40;99.90;;;;;;4991463;28;20485;-69
2022/05/23 05:26:05;;;;;;;7.97;5.45;;;14.50;99.90;;;;;;4981375;28;20581;-68
2022/05/23 05:28:32;;;;;;;10.55;6.25;;;14.70;99.90;;;;;;4987032;28;20049;-68
2022/05/23 05:31:16;;;;;;;9.60;5.35;;;14.80;99.90;;;;;;4992984;28;20076;-68
2022/05/23 05:33:54;;;;;;;10.52;5.88;;;14.90;99.90;;;;;;4983757;28;20100;-68
2022/05/23 05:36:25;;;;;;;8.95;6.28;;;15.00;99.90;;;;;;5006579;28;20053;-71
2022/05/23 05:38:53;;;;;;;;;;;15.00;99.90;;;;;;5005616;28;20057;-71
2022/05/23 05:41:23;;;;;;;9.05;6.30;;;15.00;99.90;;;;;;4986388;28;19929;-69
2022/05/23 05:43:55;;;;;;;9.65;5.88;;;15.00;99.90;;;;;;4986378;28;20548;-68
2022/05/23 05:46:26;;;;;;;9.80;6.30;;;15.10;99.90;;;;;;4981485;28;20053;-68
2022/05/23 05:48:55;;;;;;;8.68;6.25;;;15.00;99.90;;;;;;4983730;28;20053;-68
2022/05/23 05:51:24;;;;;;;10.10;6.50;;;15.00;99.90;;;;;;4970071;28;20046;-68
2022/05/23 05:53:50;;;;;;;11.90;6.13;;;15.00;99.90;;;;;;4991660;28;20605;-68
2022/05/23 05:56:18;;;;;;;8.68;5.85;;;15.00;99.90;;;;;;4994530;28;20081;-69
2022/05/23 05:58:44;;;;;;;8.45;6.20;;;15.10;99.90;;;;;;4975024;28;20108;-69
2022/05/23 06:01:10;;;;;;;8.27;6.45;;;15.20;99.90;;;;;;4978951;28;20050;-70
2022/05/23 06:03:36;;;;;;;10.35;6.45;;;15.30;99.90;;;;;;4959736;28;20045;-68
2022/05/23 06:11:32;;;;;;;8.93;6.38;;;15.60;99.90;;;;;;4980037;28;20050;-72
2022/05/23 06:14:01;;;;;;;10.23;6.82;;;15.60;99.90;;;;;;4979580;28;20050;-76
2022/05/23 06:16:30;;;;;;;8.73;6.43;;;15.50;99.90;;;;;;4991910;28;20085;-74
2022/05/23 06:18:56;;;;;;;8.85;6.65;;;15.50;99.90;;;;;;4990592;28;20045;-73
2022/05/23 06:21:24;;;;;;;8.55;6.93;;;15.50;99.90;;;;;;4979497;28;20064;-73
2022/05/23 06:23:51;;;;;;;11.82;6.80;;;15.60;99.90;;;;;;4968503;28;20042;-74
2022/05/23 06:26:21;;;;;;;9.50;6.95;;;15.60;99.90;;;;;;4991509;28;20137;-75
2022/05/23 06:28:49;;;;;;;11.55;6.90;;;15.60;99.90;;;;;;4977515;28;20084;-73
2022/05/23 06:31:15;;;;;;;10.75;6.57;;;15.70;99.90;;;;;;4992739;28;20060;-74
2022/05/23 06:33:42;;;;;;;10.65;7.25;;;15.80;99.90;;;;;;4994467;28;20403;-73
2022/05/23 06:36:10;;;;;;;12.10;7.53;;;15.90;99.90;;;;;;4988858;28;20490;-73
2022/05/23 06:38:38;;;;;;;11.98;7.50;;;16.00;99.90;;;;;;4975410;28;20054;-73
2022/05/23 06:41:06;;;;;;;12.48;7.60;;;16.30;99.90;;;;;;4982101;28;20489;-74
2022/05/23 06:43:33;;;;;;;10.40;7.57;;;16.60;99.90;;;;;;4994603;28;20050;-74
2022/05/23 06:46:02;;;;;;;14.07;7.20;;;16.80;99.90;;;;;;4986147;28;20495;-74
2022/05/23 06:48:29;;;;;;;12.05;6.97;;;16.90;99.90;;;;;;4983793;28;20116;-74
2022/05/23 06:50:56;;;;;;;8.30;6.97;;;17.10;99.90;;;;;;4991968;28;20133;-77
2022/05/23 06:53:24;;;;;;;10.05;6.80;;;17.30;99.90;;;;;;4982507;28;20193;-74
2022/05/23 06:55:51;;;;;;;11.02;6.72;;;17.30;99.90;;;;;;4992496;28;20081;-73
2022/05/23 06:58:21;;;;;;;10.68;7.00;;;17.40;99.90;;;;;;4993073;28;20046;-74
2022/05/23 07:00:52;;;;;;;10.23;7.18;;;17.50;99.90;;;;;;4986399;28;20514;-74
2022/05/23 07:03:19;;;;;;;8.02;6.95;;;17.60;99.90;;;;;;4989353;28;20180;-73
2022/05/23 07:14:00;;;;;;;12.02;7.18;;;17.70;99.90;;;;;;5004027;28;20055;-73
2022/05/23 07:16:28;;;;;;;12.40;7.38;;;17.70;99.90;;;;;;4972374;28;20278;-74
2022/05/23 07:18:56;;;;;;;10.90;7.30;;;17.70;99.90;;;;;;4987826;28;20061;-74
2022/05/23 07:21:24;;;;;;;10.40;7.25;;;17.80;99.90;;;;;;4989201;28;20053;-76
2022/05/23 07:23:51;;;;;;;9.55;7.15;;;17.90;99.90;;;;;;4985605;28;20054;-79
2022/05/23 07:26:19;;;;;;;9.57;7.40;;;17.80;99.90;;;;;;4989442;28;20129;-74
2022/05/23 07:28:47;;;;;;;12.57;7.40;;;18.10;99.90;;;;;;4993041;28;20050;-76
2022/05/23 07:31:13;;;;;;;11.73;8.10;;;18.20;99.90;;;;;;4993843;28;20523;-75
2022/05/23 07:33:40;;;;;;;10.00;7.07;;;18.40;99.90;;;;;;4997400;28;20043;-78
2022/05/23 07:36:08;;;;;;;9.57;6.68;;;18.60;99.90;;;;;;4994547;28;20451;-74
2022/05/23 07:38:37;;;;;;;9.88;6.50;;;18.80;99.90;;;;;;4980450;28;20459;-74
2022/05/23 07:41:06;;;;;;;9.25;6.97;;;19.00;99.90;;;;;;4991093;28;20483;-75
2022/05/23 07:43:35;;;;;;;10.80;6.60;;;19.20;99.90;;;;;;5005585;28;20384;-75
2022/05/23 07:46:12;;;;;;;10.63;6.55;;;19.20;99.90;;;;;;4989033;28;20073;-74
2022/05/23 07:48:43;;;;;;;10.15;6.82;;;19.40;99.90;;;;;;4991781;28;20050;-74
2022/05/23 07:51:13;;;;;;;11.52;6.60;;;19.60;99.90;;;;;;4994643;28;20042;-74
2022/05/23 08:01:53;;;;;;;9.55;7.07;;;19.90;99.90;;;;;;4993749;28;20454;-74
2022/05/23 08:04:20;;;;;;;10.70;6.90;;;20.00;99.90;;;;;;5004718;28;20149;-74
2022/05/23 08:06:47;;;;;;;11.68;7.10;;;20.00;99.90;;;;;;4981587;28;20487;-73
2022/05/23 08:09:13;;;;;;;11.60;6.85;;;20.00;99.90;;;;;;4983512;28;20050;-73
2022/05/23 08:11:42;;;;;;;9.95;6.70;;;20.00;99.90;;;;;;4988365;28;20047;-73
2022/05/23 08:14:08;;;;;;;9.15;6.70;;;20.00;99.90;;;;;;4992940;28;20061;-74
2022/05/23 08:16:35;;;;;;;9.95;6.40;;;20.20;99.90;;;;;;4989586;28;20068;-74
2022/05/23 08:19:03;;;;;;;9.20;6.28;;;20.60;99.90;;;;;;4987098;28;20462;-73
2022/05/23 08:21:30;;;;;;;10.25;6.97;;;20.70;99.90;;;;;;4967514;28;20078;-74
2022/05/23 08:23:56;;;;;;;8.15;6.22;;;20.80;99.90;;;;;;4985939;28;20092;-74
2022/05/23 08:26:21;;;;;;;12.65;6.80;;;21.00;99.90;;;;;;4988534;28;20042;-73
2022/05/23 08:28:48;;;;;;;11.38;6.65;;;21.20;99.90;;;;;;4987631;28;20187;-71
2022/05/23 08:31:13;;;;;;;8.93;6.47;;;21.40;99.90;;;;;;4984107;28;20046;-71
2022/05/23 08:33:39;;;;;;;8.25;6.32;;;21.50;99.90;;;;;;4996534;28;20045;-72
2022/05/23 08:36:05;;;;;;;10.07;6.40;;;21.70;99.90;;;;;;4963517;28;20046;-74
2022/05/23 08:38:31;;;;;;;9.20;5.68;;;22.00;99.90;;;;;;4991281;28;20084;-75
2022/05/23 08:41:18;;;;;;;11.38;6.20;;;22.10;99.90;;;;;;4994091;28;20085;-73
2022/05/23 08:44:13;;;;;;;10.30;6.68;;;22.00;99.90;;;;;;4995355;28;20108;-74
2022/05/23 08:47:01;;;;;;;10.60;6.30;;;22.00;99.90;;;;;;5012688;28;20494;-75
2022/05/23 08:49:36;;;;;;;10.02;6.13;;;22.00;99.90;;;;;;4996774;28;20445;-71
2022/05/23 08:52:02;;;;;;;9.18;6.45;;;21.90;99.90;;;;;;5009358;28;20046;-68
2022/05/23 08:54:40;;;;;;;11.63;6.63;;;22.00;99.90;;;;;;4995155;28;20053;-69
2022/05/23 08:57:15;;;;;;;9.85;6.22;;;22.10;99.90;;;;;;4976047;28;20061;-69
2022/05/23 08:59:44;;;;;;;11.38;6.75;;;22.20;99.90;;;;;;4993838;28;20482;-72
2022/05/23 09:02:36;;;;;;;11.85;6.40;;;22.40;99.90;;;;;;4973253;28;20050;-72
2022/05/23 09:05:09;;;;;;;9.77;6.68;;;22.60;99.90;;;;;;4992478;28;20054;-70
2022/05/23 09:07:44;;;;;;;10.35;7.13;;;22.80;99.90;;;;;;4985349;28;20056;-69
2022/05/23 09:10:22;;;;;;;9.80;7.00;;;22.90;99.90;;;;;;4992798;28;20038;-70
2022/05/23 09:12:51;;;;;;;10.70;6.38;;;23.10;99.90;;;;;;4992972;28;20305;-70
2022/05/23 09:15:17;;;;;;;9.90;6.30;;;23.10;99.90;;;;;;5004342;28;20049;-70
2022/05/23 09:17:50;;;;;;;8.73;5.65;;;23.20;99.90;;;;;;4994091;28;20041;-70
2022/05/23 09:20:32;;;;;;;12.02;6.30;;;23.30;99.90;;;;;;4993104;28;20104;-70
2022/05/23 09:23:04;;;;;;;8.80;6.20;;;23.50;99.90;;;;;;4994731;28;20137;-71
2022/05/23 09:25:30;;;;;;;9.98;6.45;;;23.60;99.90;;;;;;5007470;28;20057;-70
2022/05/23 09:28:14;;;;;;;7.78;6.28;;;23.70;99.90;;;;;;4988298;28;20045;-72
2022/05/23 09:30:42;;;;;;;8.30;6.82;;;23.60;99.90;;;;;;4983766;28;20057;-70
2022/05/23 09:33:18;;;;;;;10.23;6.35;;;23.70;99.90;;;;;;4994731;28;20378;-70
2022/05/23 09:36:10;;;;;;;8.88;6.93;;;23.80;99.90;;;;;;4994194;28;20049;-71
2022/05/23 09:38:57;;;;;;;10.50;7.20;;;23.80;99.90;;;;;;4976740;28;20060;-69
2022/05/23 09:49:52;;;;;;;7.25;6.20;;;24.10;99.90;;;;;;5002594;28;20065;-73
2022/05/23 09:52:28;;;;;;;9.88;5.78;;;24.10;99.90;;;;;;4985506;28;20050;-76
2022/05/23 09:55:01;;;;;;;9.90;5.90;;;24.10;99.90;;;;;;4958765;28;20065;-73
2022/05/23 09:57:32;;;;;;;10.70;6.07;;;24.20;99.90;;;;;;4974684;28;20089;-73
2022/05/23 10:00:00;;;;;;;;;;;24.30;99.90;;;;;;4986951;28;20092;-75
2022/05/23 10:02:33;;;;;;;7.88;6.40;;;24.40;99.90;;;;;;4993409;28;19929;-75
2022/05/23 10:05:00;;;;;;;8.40;5.95;;;24.40;99.90;;;;;;4978533;28;20212;-73
2022/05/23 10:07:36;;;;;;;9.43;6.47;;;24.40;99.90;;;;;;5004175;28;20112;-71
2022/05/23 10:10:30;;;;;;;8.10;5.88;;;24.50;99.90;;;;;;4998043;28;20056;-73
2022/05/23 10:13:29;;;;;;;6.97;5.03;;;24.60;99.90;;;;;;4971626;28;20623;-71
2022/05/23 10:16:01;;;;;;;9.60;5.30;;;24.70;99.90;;;;;;4985140;28;20050;-75
2022/05/23 10:18:32;;;;;;;6.13;5.50;;;24.90;99.90;;;;;;4992562;28;20084;-75
2022/05/23 10:21:01;;;;;;;7.47;5.95;;;24.90;99.90;;;;;;5010837;28;20053;-71
2022/05/23 10:23:33;;;;;;;8.93;5.82;;;24.80;99.90;;;;;;4976218;28;20042;-72
2022/05/23 10:26:06;;;;;;;7.38;5.50;;;25.00;99.90;;;;;;4993511;28;20045;-71
2022/05/23 10:28:36;;;;;;;8.63;6.13;;;25.20;99.90;;;;;;4977527;28;20054;-71
2022/05/23 10:31:44;;;;;;;10.77;5.57;;;25.20;99.90;;;;;;4985155;28;20061;-73
2022/05/23 10:34:42;;;;;;;7.38;5.00;;;25.40;99.90;;;;;;4992663;28;20046;-73
2022/05/23 10:37:24;;;;;;;13.18;5.53;;;25.40;92.80;;;;;;4983134;28;20134;-73
2022/05/23 10:42:58;;;;;;;8.93;3.92;;;25.90;99.70;;;;;;4982281;28;20057;-72
2022/05/23 10:45:33;;;;;;;7.00;4.38;;;26.00;75.30;;;;;;5008336;28;20054;-73
2022/05/23 10:48:02;;;;;;;6.28;4.72;;;26.20;78.70;;;;;;4990068;28;20541;-73
2022/05/23 10:51:14;;;;;;;6.00;4.18;;;26.60;90.50;;;;;;5007649;28;20061;-72
2022/05/23 10:54:02;;;;;;;7.18;3.85;;;26.40;69.00;;;;;;4982936;28;20077;-73
2022/05/23 10:57:07;;;;;;;5.60;3.55;;;26.60;70.20;;;;;;4976405;28;20054;-73
2022/05/23 10:59:53;;;;;;;7.53;2.95;;;27.00;71.30;;;;;;4983133;28;20058;-75
2022/05/23 11:02:45;;;;;;;5.35;2.90;;;26.90;71.40;;;;;;4990582;28;20050;-73
2022/05/23 11:05:27;;;;;;;4.55;2.67;;;27.00;62.00;;;;;;4991074;28;20052;-72
2022/05/23 11:08:32;;;;;;;5.38;3.00;;;26.90;62.90;;;;;;4981926;28;20046;-72
2022/05/23 11:11:17;;;;;;;6.60;2.97;;;26.80;66.50;;;;;;4996547;28;20147;-73
2022/05/23 11:13:49;;;;;;;3.33;2.65;;;26.70;65.70;;;;;;4990574;28;20054;-72
2022/05/23 11:16:26;;;;;;;5.32;3.13;;;26.90;64.80;;;;;;4989627;28;20128;-76
2022/05/23 11:18:52;;;;;;;7.38;3.88;;;26.90;65.90;;;;;;4980675;28;20125;-75
2022/05/23 11:21:38;;;;;;;5.30;3.53;;;26.90;64.10;;;;;;5009438;28;20049;-77
2022/05/23 11:24:10;;;;;;;6.50;3.00;;;26.90;60.00;;;;;;5003377;28;20452;-75
2022/05/23 11:26:54;;;;;;;7.18;2.90;;;27.20;63.30;;;;;;4997005;28;20054;-73
2022/05/23 11:34:46;;;;;;;5.75;2.80;;;26.80;60.80;;;;;;4991184;28;20050;-73
2022/05/23 11:40:01;;;;;;;5.50;3.15;;;26.60;58.60;;;;;;4996211;28;20399;-75
2022/05/23 11:42:29;;;;;;;5.45;2.60;;;26.60;59.50;;;;;;4989147;28;20479;-75
2022/05/23 11:44:58;;;;;;;7.32;2.72;;;26.70;60.80;;;;;;5013299;28;20088;-79
2022/05/23 11:47:44;;;;;;;4.57;2.38;;;26.80;60.10;;;;;;4996899;28;20482;-74
2022/05/23 11:50:28;;;;;;;5.32;2.80;;;26.80;58.90;;;;;;4997298;28;20046;-77
2022/05/23 11:53:23;;;;;;;5.50;2.70;;;26.80;59.70;;;;;;4978946;28;20482;-75
2022/05/23 11:55:53;;;;;;;3.10;2.70;;;26.80;59.00;;;;;;4976453;28;20427;-74
2022/05/23 11:58:39;;;;;;;4.35;2.50;;;27.00;60.00;;;;;;4977261;28;20490;-80
2022/05/23 12:01:19;;;;;;;4.90;2.50;;;27.20;57.70;;;;;;4997080;28;20049;-78
2022/05/23 12:03:50;;;;;;;3.83;2.65;;;27.10;58.30;;;;;;4976317;28;20132;-78
2022/05/23 12:06:22;;;;;;;2.90;2.63;;;27.10;59.30;;;;;;4997090;28;20050;-72
2022/05/23 12:08:57;;;;;;;3.80;2.67;;;27.00;57.90;;;;;;4996463;28;20050;-73
2022/05/23 12:11:31;;;;;;;5.20;2.53;;;27.20;58.00;;;;;;4996777;28;20053;-73
2022/05/23 12:14:31;;;;;;;6.18;3.10;;;27.10;59.70;;;;;;4991709;28;20048;-75
2022/05/23 12:16:57;;;;;;;4.22;2.45;;;27.30;56.80;;;;;;4995750;28;20061;-76
2022/05/23 12:19:40;;;;;;;5.07;2.90;;;27.50;59.50;;;;;;4996304;28;20202;-74
2022/05/23 12:22:18;;;;;;;3.67;2.70;;;27.80;56.80;;;;;;4969441;28;20165;-72
2022/05/23 12:25:09;;;;;;;3.53;2.42;;;27.80;56.30;;;;;;4995663;28;20084;-73
2022/05/23 12:27:37;;;;;;;4.30;2.72;;;27.90;55.70;;;;;;4995847;28;20093;-74
2022/05/23 12:30:21;;;;;;;7.28;3.25;;;28.00;57.70;;;;;;4996599;28;20053;-74
2022/05/23 12:32:59;;;;;;;4.72;2.83;;;28.00;57.40;;;;;;4996484;28;20546;-73
2022/05/23 12:35:44;;;;;;;6.20;3.00;;;27.90;57.50;;;;;;5013152;28;20042;-72
2022/05/23 12:38:33;;;;;;;4.63;2.80;;;27.70;57.60;;;;;;4976685;28;20054;-73
2022/05/23 12:41:46;;;;;;;6.22;3.35;;;28.30;56.00;;;;;;4978486;28;20050;-70
2022/05/23 12:44:42;;;;;;;4.80;3.15;;;28.70;55.70;;;;;;4953414;28;20062;-71
2022/05/23 12:47:17;;;;;;;6.57;3.10;;;29.00;58.90;;;;;;4989050;28;20034;-71
2022/05/23 12:49:54;;;;;;;6.38;3.00;;;29.80;59.40;;;;;;4996229;28;20044;-72
2022/05/23 12:53:16;;;;;;;3.97;2.75;;;29.70;57.50;;;;;;4995908;28;20049;-73
2022/05/23 12:56:06;;;;;;;4.80;2.67;;;29.50;53.50;;;;;;4953597;28;20364;-71
2022/05/23 12:59:07;;;;;;;6.47;3.15;;;29.50;56.30;;;;;;5007026;28;20103;-72
2022/05/23 13:01:35;;;;;;;;;;;29.50;53.50;;;;;;5012474;28;20045;-73
2022/05/23 13:04:16;;;;;;;4.82;2.60;;;29.30;53.50;;;;;;5012158;28;19999;-72
2022/05/23 13:07:08;;;;;;;3.35;3.05;;;29.00;54.70;;;;;;5010556;28;20050;-71
2022/05/23 13:09:56;;;;;;;5.03;3.05;;;28.90;55.50;;;;;;4987443;28;20077;-73
2022/05/23 13:12:35;;;;;;;3.60;3.10;;;28.10;55.10;;;;;;4995928;28;20060;-72
2022/05/23 13:15:02;;;;;;;4.95;3.22;;;27.50;55.40;;;;;;4994128;28;20539;-73
2022/05/23 13:17:31;;;;;;;5.20;3.35;;;27.10;55.80;;;;;;4991077;28;20050;-69
2022/05/23 13:22:41;;;;;;;5.13;3.30;;;26.60;56.70;;;;;;5011855;28;20388;-72
2022/05/23 13:25:08;;;;;;;5.47;3.72;;;26.40;57.30;;;;;;4991352;28;20053;-72
2022/05/23 13:27:45;;;;;;;6.57;3.28;;;26.50;57.30;;;;;;4994673;28;20057;-71
2022/05/23 13:30:17;;;;;;;7.30;3.30;;;26.50;58.10;;;;;;4994278;28;20104;-70
2022/05/23 13:32:44;;;;;;;5.45;3.30;;;26.50;58.40;;;;;;4981130;28;20077;-71
2022/05/23 13:35:22;;;;;;;4.85;3.00;;;26.40;58.50;;;;;;4979145;28;20054;-72
2022/05/23 13:37:49;;;;;;;6.50;3.65;;;26.40;59.00;;;;;;4981620;28;20042;-70
2022/05/23 13:40:19;;;;;;;5.63;3.35;;;26.50;59.60;;;;;;4967414;28;20100;-70
2022/05/23 13:42:45;;;;;;;7.57;3.50;;;26.40;60.20;;;;;;4977214;28;20096;-71
2022/05/23 13:45:24;;;;;;;5.57;3.30;;;26.30;60.90;;;;;;4986106;28;20117;-72
2022/05/23 13:48:00;;;;;;;6.82;3.45;;;26.00;60.00;;;;;;4993782;28;20046;-72
2022/05/23 13:50:35;;;;;;;3.78;3.10;;;25.70;64.10;;;;;;4993759;28;20474;-73
2022/05/23 13:53:11;;;;;;;6.55;3.35;;;25.60;61.80;;;;;;4984455;28;20061;-71
2022/05/23 13:55:45;;;;;;;5.93;3.17;;;25.40;63.60;;;;;;4976888;28;20133;-73
2022/05/23 13:58:28;;;;;;;7.15;3.35;;;25.30;63.80;;;;;;4976494;28;20140;-73
2022/05/23 14:01:16;;;;;;;5.32;3.42;;;25.20;63.40;;;;;;5011255;28;20120;-71
2022/05/23 14:04:10;;;;;;;6.30;3.30;;;25.10;69.40;;;;;;4977865;28;20046;-76
2022/05/23 14:06:59;;;;;;;5.97;3.25;;;25.10;83.60;;;;;;4983806;28;20081;-74
2022/05/23 14:09:26;;;;;;;6.68;3.50;;;25.10;72.50;;;;;;4966337;28;20042;-76
2022/05/23 14:11:56;;;;;;;10.18;3.60;;;25.00;78.30;;;;;;4992607;28;20053;-73
2022/05/23 14:14:42;;;;;;;6.85;3.47;;;24.90;79.30;;;;;;4977616;28;20046;-72
2022/05/23 14:17:34;;;;;;;7.07;3.35;;;24.80;80.30;;;;;;4991362;28;20057;-70